sensor_id;sensor_type;location;lat;lon;timestamp;P1;durP1;ratioP1;P2;durP2;ratioP2
73239;SDS011;61452;40.054;4.110;2023-04-03T00:01:52;29.23;;;6.22;;
73239;SDS011;61452;40.054;4.110;2023-04-03T00:06:55;29.85;;;6.75;;
73239;SDS011;61452;40.054;4.110;2023-04-03T00:11:57;24.02;;;5.03;;
73239;SDS011;61452;40.054;4.110;2023-04-03T00:16:59;20.27;;;4.65;;
73239;SDS011;61452;40.054;4.110;2023-04-03T00:22:01;26.60;;;5.78;;
73239;SDS011;61452;40.054;4.110;2023-04-03T00:27:03;23.35;;;5.35;;
73239;SDS011;61452;40.054;4.110;2023-04-03T00:32:06;30.33;;;5.28;;
73239;SDS011;61452;40.054;4.110;2023-04-03T00:37:08;29.27;;;6.60;;
73239;SDS011;61452;40.054;4.110;2023-04-03T00:42:11;26.17;;;5.75;;
73239;SDS011;61452;40.054;4.110;2023-04-03T00:47:15;25.60;;;5.60;;
73239;SDS011;61452;40.054;4.110;2023-04-03T00:52:20;24.38;;;6.20;;
73239;SDS011;61452;40.054;4.110;2023-04-03T00:57:25;25.90;;;6.22;;
73239;SDS011;61452;40.054;4.110;2023-04-03T01:02:28;26.27;;;5.50;;
73239;SDS011;61452;40.054;4.110;2023-04-03T01:07:31;25.60;;;5.15;;
73239;SDS011;61452;40.054;4.110;2023-04-03T01:12:39;22.85;;;5.03;;
73239;SDS011;61452;40.054;4.110;2023-04-03T01:17:49;27.00;;;4.85;;
73239;SDS011;61452;40.054;4.110;2023-04-03T01:28:16;30.20;;;6.13;;
73239;SDS011;61452;40.054;4.110;2023-04-03T01:33:20;27.45;;;6.32;;
73239;SDS011;61452;40.054;4.110;2023-04-03T01:38:23;27.65;;;6.70;;
73239;SDS011;61452;40.054;4.110;2023-04-03T01:43:26;24.98;;;5.82;;
73239;SDS011;61452;40.054;4.110;2023-04-03T01:48:28;23.90;;;5.57;;
73239;SDS011;61452;40.054;4.110;2023-04-03T01:53:30;17.52;;;4.88;;
73239;SDS011;61452;40.054;4.110;2023-04-03T01:58:33;29.17;;;6.05;;
73239;SDS011;61452;40.054;4.110;2023-04-03T02:03:35;26.58;;;6.13;;
73239;SDS011;61452;40.054;4.110;2023-04-03T02:08:38;32.45;;;6.32;;
73239;SDS011;61452;40.054;4.110;2023-04-03T02:13:40;27.38;;;6.57;;
73239;SDS011;61452;40.054;4.110;2023-04-03T02:18:42;32.13;;;5.95;;
73239;SDS011;61452;40.054;4.110;2023-04-03T02:23:44;23.33;;;6.38;;
73239;SDS011;61452;40.054;4.110;2023-04-03T02:28:46;29.75;;;5.85;;
73239;SDS011;61452;40.054;4.110;2023-04-03T02:33:49;31.48;;;6.40;;
73239;SDS011;61452;40.054;4.110;2023-04-03T02:38:52;29.08;;;6.45;;
73239;SDS011;61452;40.054;4.110;2023-04-03T02:43:54;21.95;;;5.07;;
73239;SDS011;61452;40.054;4.110;2023-04-03T02:48:57;22.63;;;5.93;;
73239;SDS011;61452;40.054;4.110;2023-04-03T02:53:59;33.08;;;5.65;;
73239;SDS011;61452;40.054;4.110;2023-04-03T02:59:05;29.27;;;6.15;;
73239;SDS011;61452;40.054;4.110;2023-04-03T03:04:10;25.23;;;6.25;;
73239;SDS011;61452;40.054;4.110;2023-04-03T03:09:12;27.23;;;5.88;;
73239;SDS011;61452;40.054;4.110;2023-04-03T03:14:16;24.15;;;4.88;;
73239;SDS011;61452;40.054;4.110;2023-04-03T03:19:19;24.80;;;6.35;;
73239;SDS011;61452;40.054;4.110;2023-04-03T03:24:21;35.10;;;6.18;;
73239;SDS011;61452;40.054;4.110;2023-04-03T03:29:23;24.95;;;5.22;;
73239;SDS011;61452;40.054;4.110;2023-04-03T03:34:26;27.17;;;5.00;;
73239;SDS011;61452;40.054;4.110;2023-04-03T03:39:28;30.45;;;6.85;;
73239;SDS011;61452;40.054;4.110;2023-04-03T03:44:31;25.50;;;5.90;;
73239;SDS011;61452;40.054;4.110;2023-04-03T03:49:33;26.85;;;6.15;;
73239;SDS011;61452;40.054;4.110;2023-04-03T03:54:36;31.92;;;6.90;;
73239;SDS011;61452;40.054;4.110;2023-04-03T03:59:39;36.58;;;6.75;;
73239;SDS011;61452;40.054;4.110;2023-04-03T04:04:43;33.28;;;6.43;;
73239;SDS011;61452;40.054;4.110;2023-04-03T04:09:46;28.85;;;5.40;;
73239;SDS011;61452;40.054;4.110;2023-04-03T04:14:49;25.17;;;5.65;;
73239;SDS011;61452;40.054;4.110;2023-04-03T04:19:51;24.60;;;6.63;;
73239;SDS011;61452;40.054;4.110;2023-04-03T04:24:53;33.03;;;6.70;;
73239;SDS011;61452;40.054;4.110;2023-04-03T04:29:56;34.28;;;6.00;;
73239;SDS011;61452;40.054;4.110;2023-04-03T04:35:01;37.92;;;7.18;;
73239;SDS011;61452;40.054;4.110;2023-04-03T04:40:05;28.98;;;5.95;;
73239;SDS011;61452;40.054;4.110;2023-04-03T04:45:08;28.98;;;5.38;;
73239;SDS011;61452;40.054;4.110;2023-04-03T04:50:12;22.98;;;4.90;;
73239;SDS011;61452;40.054;4.110;2023-04-03T04:55:15;25.83;;;6.18;;
73239;SDS011;61452;40.054;4.110;2023-04-03T05:00:17;24.85;;;5.78;;
73239;SDS011;61452;40.054;4.110;2023-04-03T05:05:20;25.85;;;5.07;;
73239;SDS011;61452;40.054;4.110;2023-04-03T05:10:23;29.40;;;6.38;;
73239;SDS011;61452;40.054;4.110;2023-04-03T05:15:26;19.52;;;4.45;;
73239;SDS011;61452;40.054;4.110;2023-04-03T05:20:28;31.13;;;6.65;;
73239;SDS011;61452;40.054;4.110;2023-04-03T05:25:31;24.40;;;5.97;;
73239;SDS011;61452;40.054;4.110;2023-04-03T05:30:34;24.63;;;4.70;;
73239;SDS011;61452;40.054;4.110;2023-04-03T05:35:38;31.70;;;6.30;;
73239;SDS011;61452;40.054;4.110;2023-04-03T05:40:46;30.50;;;6.15;;
73239;SDS011;61452;40.054;4.110;2023-04-03T05:45:49;22.85;;;4.60;;
73239;SDS011;61452;40.054;4.110;2023-04-03T05:50:51;32.90;;;6.28;;
73239;SDS011;61452;40.054;4.110;2023-04-03T05:55:59;19.70;;;4.30;;
73239;SDS011;61452;40.054;4.110;2023-04-03T06:01:04;22.27;;;4.60;;
73239;SDS011;61452;40.054;4.110;2023-04-03T06:11:14;20.58;;;4.95;;
73239;SDS011;61452;40.054;4.110;2023-04-03T06:16:17;19.35;;;6.07;;
73239;SDS011;61452;40.054;4.110;2023-04-03T06:21:19;24.38;;;5.15;;
73239;SDS011;61452;40.054;4.110;2023-04-03T06:26:21;26.50;;;5.85;;
73239;SDS011;61452;40.054;4.110;2023-04-03T06:31:24;20.67;;;5.45;;
73239;SDS011;61452;40.054;4.110;2023-04-03T06:36:26;33.13;;;7.88;;
73239;SDS011;61452;40.054;4.110;2023-04-03T06:41:28;25.23;;;5.78;;
73239;SDS011;61452;40.054;4.110;2023-04-03T06:46:31;31.42;;;6.05;;
73239;SDS011;61452;40.054;4.110;2023-04-03T06:51:34;28.65;;;5.32;;
73239;SDS011;61452;40.054;4.110;2023-04-03T06:56:36;34.50;;;6.70;;
73239;SDS011;61452;40.054;4.110;2023-04-03T07:01:39;31.75;;;6.22;;
73239;SDS011;61452;40.054;4.110;2023-04-03T07:06:42;21.05;;;5.20;;
73239;SDS011;61452;40.054;4.110;2023-04-03T07:11:44;30.73;;;6.70;;
73239;SDS011;61452;40.054;4.110;2023-04-03T07:16:46;24.65;;;4.80;;
73239;SDS011;61452;40.054;4.110;2023-04-03T07:21:48;29.08;;;5.80;;
73239;SDS011;61452;40.054;4.110;2023-04-03T07:26:54;25.25;;;4.85;;
73239;SDS011;61452;40.054;4.110;2023-04-03T07:31:56;31.75;;;6.18;;
73239;SDS011;61452;40.054;4.110;2023-04-03T07:36:59;29.25;;;6.18;;
73239;SDS011;61452;40.054;4.110;2023-04-03T07:42:01;30.42;;;5.38;;
73239;SDS011;61452;40.054;4.110;2023-04-03T07:47:04;32.53;;;6.60;;
73239;SDS011;61452;40.054;4.110;2023-04-03T07:52:07;29.40;;;5.88;;
73239;SDS011;61452;40.054;4.110;2023-04-03T07:57:10;31.80;;;5.80;;
73239;SDS011;61452;40.054;4.110;2023-04-03T08:02:13;29.63;;;5.35;;
73239;SDS011;61452;40.054;4.110;2023-04-03T08:07:15;29.50;;;6.22;;
73239;SDS011;61452;40.054;4.110;2023-04-03T08:12:17;27.27;;;6.30;;
73239;SDS011;61452;40.054;4.110;2023-04-03T08:17:19;35.00;;;6.50;;
73239;SDS011;61452;40.054;4.110;2023-04-03T08:22:22;23.95;;;5.05;;
73239;SDS011;61452;40.054;4.110;2023-04-03T08:27:24;25.55;;;5.20;;
73239;SDS011;61452;40.054;4.110;2023-04-03T08:32:29;26.33;;;5.47;;
73239;SDS011;61452;40.054;4.110;2023-04-03T08:37:34;29.08;;;5.32;;
73239;SDS011;61452;40.054;4.110;2023-04-03T08:48:05;23.13;;;4.50;;
73239;SDS011;61452;40.054;4.110;2023-04-03T08:53:14;24.25;;;5.30;;
73239;SDS011;61452;40.054;4.110;2023-04-03T08:58:26;28.58;;;5.35;;
73239;SDS011;61452;40.054;4.110;2023-04-03T09:03:32;32.33;;;6.57;;
73239;SDS011;61452;40.054;4.110;2023-04-03T09:13:57;25.92;;;5.53;;
73239;SDS011;61452;40.054;4.110;2023-04-03T09:24:26;30.52;;;5.57;;
73239;SDS011;61452;40.054;4.110;2023-04-03T09:29:30;36.60;;;6.25;;
73239;SDS011;61452;40.054;4.110;2023-04-03T09:34:35;28.33;;;5.97;;
73239;SDS011;61452;40.054;4.110;2023-04-03T09:39:53;28.02;;;5.45;;
73239;SDS011;61452;40.054;4.110;2023-04-03T09:45:02;25.73;;;5.30;;
73239;SDS011;61452;40.054;4.110;2023-04-03T09:55:15;31.92;;;6.25;;
73239;SDS011;61452;40.054;4.110;2023-04-03T10:00:30;22.88;;;4.57;;
73239;SDS011;61452;40.054;4.110;2023-04-03T10:05:39;29.52;;;4.60;;
73239;SDS011;61452;40.054;4.110;2023-04-03T10:10:47;29.83;;;5.30;;
73239;SDS011;61452;40.054;4.110;2023-04-03T10:15:51;27.58;;;5.30;;
73239;SDS011;61452;40.054;4.110;2023-04-03T10:21:13;22.45;;;4.45;;
73239;SDS011;61452;40.054;4.110;2023-04-03T10:36:55;25.73;;;4.75;;
73239;SDS011;61452;40.054;4.110;2023-04-03T10:42:35;27.13;;;5.30;;
73239;SDS011;61452;40.054;4.110;2023-04-03T10:53:02;21.67;;;4.80;;
73239;SDS011;61452;40.054;4.110;2023-04-03T11:03:46;23.02;;;5.38;;
73239;SDS011;61452;40.054;4.110;2023-04-03T11:08:53;28.88;;;6.88;;
73239;SDS011;61452;40.054;4.110;2023-04-03T11:24:38;21.48;;;4.75;;
73239;SDS011;61452;40.054;4.110;2023-04-03T11:29:44;27.58;;;6.00;;
73239;SDS011;61452;40.054;4.110;2023-04-03T11:34:51;26.92;;;5.60;;
73239;SDS011;61452;40.054;4.110;2023-04-03T11:40:01;24.67;;;5.32;;
73239;SDS011;61452;40.054;4.110;2023-04-03T11:45:17;20.13;;;4.75;;
73239;SDS011;61452;40.054;4.110;2023-04-03T12:00:55;31.80;;;7.03;;
73239;SDS011;61452;40.054;4.110;2023-04-03T12:11:21;22.00;;;5.05;;
73239;SDS011;61452;40.054;4.110;2023-04-03T12:26:40;25.48;;;4.93;;
73239;SDS011;61452;40.054;4.110;2023-04-03T12:37:07;24.98;;;5.15;;
73239;SDS011;61452;40.054;4.110;2023-04-03T12:47:57;33.25;;;6.70;;
73239;SDS011;61452;40.054;4.110;2023-04-03T12:53:15;28.48;;;6.63;;
73239;SDS011;61452;40.054;4.110;2023-04-03T13:03:25;18.88;;;4.65;;
73239;SDS011;61452;40.054;4.110;2023-04-03T13:08:28;20.65;;;5.05;;
73239;SDS011;61452;40.054;4.110;2023-04-03T13:13:32;24.20;;;5.28;;
73239;SDS011;61452;40.054;4.110;2023-04-03T13:18:35;21.42;;;4.63;;
73239;SDS011;61452;40.054;4.110;2023-04-03T13:28:42;25.92;;;5.72;;
73239;SDS011;61452;40.054;4.110;2023-04-03T13:34:18;21.90;;;5.32;;
73239;SDS011;61452;40.054;4.110;2023-04-03T13:39:22;22.15;;;4.68;;
73239;SDS011;61452;40.054;4.110;2023-04-03T13:44:29;18.67;;;4.32;;
73239;SDS011;61452;40.054;4.110;2023-04-03T13:49:37;17.08;;;4.80;;
73239;SDS011;61452;40.054;4.110;2023-04-03T13:54:42;20.73;;;3.75;;
73239;SDS011;61452;40.054;4.110;2023-04-03T13:59:49;24.42;;;5.00;;
73239;SDS011;61452;40.054;4.110;2023-04-03T14:04:56;22.92;;;3.88;;
73239;SDS011;61452;40.054;4.110;2023-04-03T14:10:03;27.27;;;5.05;;
73239;SDS011;61452;40.054;4.110;2023-04-03T14:15:20;22.00;;;5.15;;
73239;SDS011;61452;40.054;4.110;2023-04-03T14:20:26;21.00;;;4.60;;
73239;SDS011;61452;40.054;4.110;2023-04-03T14:25:29;19.08;;;4.10;;
73239;SDS011;61452;40.054;4.110;2023-04-03T14:30:33;23.13;;;4.45;;
73239;SDS011;61452;40.054;4.110;2023-04-03T14:35:37;23.48;;;4.63;;
73239;SDS011;61452;40.054;4.110;2023-04-03T14:40:39;17.60;;;3.75;;
73239;SDS011;61452;40.054;4.110;2023-04-03T14:45:42;21.48;;;4.78;;
73239;SDS011;61452;40.054;4.110;2023-04-03T14:50:45;17.42;;;3.65;;
73239;SDS011;61452;40.054;4.110;2023-04-03T14:56:10;21.02;;;3.90;;
73239;SDS011;61452;40.054;4.110;2023-04-03T15:01:17;21.83;;;4.97;;
73239;SDS011;61452;40.054;4.110;2023-04-03T15:06:20;21.65;;;3.75;;
73239;SDS011;61452;40.054;4.110;2023-04-03T15:11:24;22.42;;;4.20;;
73239;SDS011;61452;40.054;4.110;2023-04-03T15:16:27;25.88;;;5.15;;
73239;SDS011;61452;40.054;4.110;2023-04-03T15:21:30;21.42;;;4.95;;
73239;SDS011;61452;40.054;4.110;2023-04-03T15:26:32;18.67;;;4.47;;
73239;SDS011;61452;40.054;4.110;2023-04-03T15:31:34;19.58;;;4.70;;
73239;SDS011;61452;40.054;4.110;2023-04-03T15:36:37;13.70;;;3.35;;
73239;SDS011;61452;40.054;4.110;2023-04-03T15:41:39;19.00;;;4.22;;
73239;SDS011;61452;40.054;4.110;2023-04-03T15:46:41;20.15;;;4.05;;
73239;SDS011;61452;40.054;4.110;2023-04-03T15:51:43;22.40;;;4.68;;
73239;SDS011;61452;40.054;4.110;2023-04-03T15:56:46;16.88;;;4.03;;
73239;SDS011;61452;40.054;4.110;2023-04-03T16:01:48;13.18;;;3.47;;
73239;SDS011;61452;40.054;4.110;2023-04-03T16:06:52;25.90;;;4.60;;
73239;SDS011;61452;40.054;4.110;2023-04-03T16:11:55;21.58;;;4.75;;
73239;SDS011;61452;40.054;4.110;2023-04-03T16:16:58;20.23;;;3.88;;
73239;SDS011;61452;40.054;4.110;2023-04-03T16:22:03;24.83;;;4.30;;
73239;SDS011;61452;40.054;4.110;2023-04-03T16:27:06;15.75;;;4.53;;
73239;SDS011;61452;40.054;4.110;2023-04-03T16:32:08;23.83;;;4.30;;
73239;SDS011;61452;40.054;4.110;2023-04-03T16:37:11;17.58;;;3.92;;
73239;SDS011;61452;40.054;4.110;2023-04-03T16:42:13;17.58;;;4.15;;
73239;SDS011;61452;40.054;4.110;2023-04-03T16:47:15;20.33;;;4.47;;
73239;SDS011;61452;40.054;4.110;2023-04-03T16:52:20;17.17;;;3.78;;
73239;SDS011;61452;40.054;4.110;2023-04-03T16:57:23;18.45;;;4.03;;
73239;SDS011;61452;40.054;4.110;2023-04-03T17:02:26;15.18;;;3.72;;
73239;SDS011;61452;40.054;4.110;2023-04-03T17:07:29;16.95;;;3.65;;
73239;SDS011;61452;40.054;4.110;2023-04-03T17:12:31;19.88;;;3.67;;
73239;SDS011;61452;40.054;4.110;2023-04-03T17:17:33;16.33;;;4.05;;
73239;SDS011;61452;40.054;4.110;2023-04-03T17:22:36;13.18;;;3.90;;
73239;SDS011;61452;40.054;4.110;2023-04-03T17:27:38;19.60;;;3.72;;
73239;SDS011;61452;40.054;4.110;2023-04-03T17:32:41;13.80;;;3.72;;
73239;SDS011;61452;40.054;4.110;2023-04-03T17:37:43;13.98;;;3.75;;
73239;SDS011;61452;40.054;4.110;2023-04-03T17:42:45;13.45;;;3.35;;
73239;SDS011;61452;40.054;4.110;2023-04-03T17:47:47;18.77;;;3.33;;
73239;SDS011;61452;40.054;4.110;2023-04-03T17:52:51;21.27;;;3.85;;
73239;SDS011;61452;40.054;4.110;2023-04-03T17:57:53;11.43;;;3.40;;
73239;SDS011;61452;40.054;4.110;2023-04-03T18:02:56;15.70;;;4.05;;
73239;SDS011;61452;40.054;4.110;2023-04-03T18:07:59;17.27;;;3.42;;
73239;SDS011;61452;40.054;4.110;2023-04-03T18:13:03;15.65;;;3.33;;
73239;SDS011;61452;40.054;4.110;2023-04-03T18:18:07;17.73;;;4.43;;
73239;SDS011;61452;40.054;4.110;2023-04-03T18:23:10;16.15;;;3.58;;
73239;SDS011;61452;40.054;4.110;2023-04-03T18:28:13;17.67;;;3.38;;
73239;SDS011;61452;40.054;4.110;2023-04-03T18:33:15;18.70;;;3.30;;
73239;SDS011;61452;40.054;4.110;2023-04-03T18:38:17;26.35;;;4.68;;
73239;SDS011;61452;40.054;4.110;2023-04-03T18:43:19;18.85;;;3.90;;
73239;SDS011;61452;40.054;4.110;2023-04-03T18:48:22;15.63;;;3.70;;
73239;SDS011;61452;40.054;4.110;2023-04-03T18:53:25;14.20;;;3.70;;
73239;SDS011;61452;40.054;4.110;2023-04-03T18:58:27;17.08;;;3.95;;
73239;SDS011;61452;40.054;4.110;2023-04-03T19:03:29;13.00;;;2.65;;
73239;SDS011;61452;40.054;4.110;2023-04-03T19:08:33;17.13;;;3.65;;
73239;SDS011;61452;40.054;4.110;2023-04-03T19:13:35;13.82;;;2.95;;
73239;SDS011;61452;40.054;4.110;2023-04-03T19:18:58;21.55;;;4.15;;
73239;SDS011;61452;40.054;4.110;2023-04-03T19:24:01;15.98;;;3.50;;
73239;SDS011;61452;40.054;4.110;2023-04-03T19:29:03;13.88;;;3.08;;
73239;SDS011;61452;40.054;4.110;2023-04-03T19:34:06;20.42;;;3.45;;
73239;SDS011;61452;40.054;4.110;2023-04-03T19:39:08;17.83;;;3.05;;
73239;SDS011;61452;40.054;4.110;2023-04-03T19:44:10;24.45;;;5.05;;
73239;SDS011;61452;40.054;4.110;2023-04-03T19:49:13;14.02;;;3.08;;
73239;SDS011;61452;40.054;4.110;2023-04-03T19:54:15;13.77;;;3.22;;
73239;SDS011;61452;40.054;4.110;2023-04-03T19:59:18;15.00;;;3.47;;
73239;SDS011;61452;40.054;4.110;2023-04-03T20:04:20;20.75;;;3.97;;
73239;SDS011;61452;40.054;4.110;2023-04-03T20:09:22;22.45;;;4.75;;
73239;SDS011;61452;40.054;4.110;2023-04-03T20:14:25;16.00;;;2.75;;
73239;SDS011;61452;40.054;4.110;2023-04-03T20:19:28;14.63;;;2.60;;
73239;SDS011;61452;40.054;4.110;2023-04-03T20:24:30;17.27;;;3.33;;
73239;SDS011;61452;40.054;4.110;2023-04-03T20:29:34;14.38;;;3.38;;
73239;SDS011;61452;40.054;4.110;2023-04-03T20:34:37;15.95;;;2.60;;
73239;SDS011;61452;40.054;4.110;2023-04-03T20:39:39;9.90;;;2.40;;
73239;SDS011;61452;40.054;4.110;2023-04-03T20:44:42;11.63;;;3.08;;
73239;SDS011;61452;40.054;4.110;2023-04-03T20:49:46;20.08;;;3.75;;
73239;SDS011;61452;40.054;4.110;2023-04-03T20:54:49;14.93;;;3.08;;
73239;SDS011;61452;40.054;4.110;2023-04-03T20:59:53;16.65;;;3.35;;
73239;SDS011;61452;40.054;4.110;2023-04-03T21:04:55;17.92;;;4.38;;
73239;SDS011;61452;40.054;4.110;2023-04-03T21:21:01;19.08;;;3.80;;
73239;SDS011;61452;40.054;4.110;2023-04-03T21:26:04;19.63;;;4.10;;
73239;SDS011;61452;40.054;4.110;2023-04-03T21:31:06;32.22;;;6.75;;
73239;SDS011;61452;40.054;4.110;2023-04-03T21:36:08;17.20;;;4.70;;
73239;SDS011;61452;40.054;4.110;2023-04-03T21:41:10;37.80;;;6.95;;
73239;SDS011;61452;40.054;4.110;2023-04-03T21:46:12;18.17;;;3.95;;
73239;SDS011;61452;40.054;4.110;2023-04-03T21:51:15;22.60;;;4.65;;
73239;SDS011;61452;40.054;4.110;2023-04-03T21:56:20;25.33;;;6.22;;
73239;SDS011;61452;40.054;4.110;2023-04-03T22:01:25;25.88;;;5.18;;
73239;SDS011;61452;40.054;4.110;2023-04-03T22:06:28;25.38;;;6.15;;
73239;SDS011;61452;40.054;4.110;2023-04-03T22:11:30;15.40;;;4.20;;
73239;SDS011;61452;40.054;4.110;2023-04-03T22:16:33;16.67;;;3.45;;
73239;SDS011;61452;40.054;4.110;2023-04-03T22:21:35;19.23;;;3.97;;
73239;SDS011;61452;40.054;4.110;2023-04-03T22:26:37;29.65;;;6.13;;
73239;SDS011;61452;40.054;4.110;2023-04-03T22:31:40;21.88;;;3.95;;
73239;SDS011;61452;40.054;4.110;2023-04-03T22:36:42;19.23;;;3.90;;
73239;SDS011;61452;40.054;4.110;2023-04-03T22:41:45;16.55;;;3.70;;
73239;SDS011;61452;40.054;4.110;2023-04-03T22:46:47;19.70;;;4.28;;
73239;SDS011;61452;40.054;4.110;2023-04-03T22:51:49;20.58;;;4.55;;
73239;SDS011;61452;40.054;4.110;2023-04-03T22:56:51;28.30;;;5.47;;
73239;SDS011;61452;40.054;4.110;2023-04-03T23:01:54;21.33;;;4.72;;
73239;SDS011;61452;40.054;4.110;2023-04-03T23:06:56;14.13;;;3.17;;
73239;SDS011;61452;40.054;4.110;2023-04-03T23:12:00;17.73;;;3.50;;
73239;SDS011;61452;40.054;4.110;2023-04-03T23:17:02;17.23;;;2.97;;
73239;SDS011;61452;40.054;4.110;2023-04-03T23:22:06;9.57;;;2.80;;
73239;SDS011;61452;40.054;4.110;2023-04-03T23:27:08;16.15;;;2.97;;
73239;SDS011;61452;40.054;4.110;2023-04-03T23:32:11;18.02;;;3.30;;
73239;SDS011;61452;40.054;4.110;2023-04-03T23:37:14;15.55;;;3.30;;
73239;SDS011;61452;40.054;4.110;2023-04-03T23:42:17;14.63;;;2.92;;
73239;SDS011;61452;40.054;4.110;2023-04-03T23:47:19;15.10;;;2.70;;
73239;SDS011;61452;40.054;4.110;2023-04-03T23:52:21;11.02;;;1.73;;
73239;SDS011;61452;40.054;4.110;2023-04-03T23:57:23;11.70;;;2.78;;
